Time;durP1;ratioP1;P1;durP2;ratioP2;P2;SDS_P1;SDS_P2;PMS_P1;PMS_P2;Temp;Humidity;BMP_temperature;BMP_pressure;BME280_temperature;BME280_humidity;BME280_pressure;Samples;Min_cycle;Max_cycle;Signal;HPM_P1;HPM_P2
2022/08/02 00:02:24;;;;;;;3.42;1.67;;;;;;;20.94;64.06;93177.72;2067309;69;20155;-72
2022/08/02 00:04:50;;;;;;;2.70;1.75;;;;;;;20.88;64.28;93177.53;2066647;69;20168;-72
2022/08/02 00:07:16;;;;;;;3.17;1.58;;;;;;;20.81;63.34;93182.34;2067491;69;20253;-72
2022/08/02 00:09:43;;;;;;;3.70;1.75;;;;;;;20.81;64.02;93195.94;2067474;69;20210;-72
2022/08/02 00:12:10;;;;;;;3.72;1.55;;;;;;;21.03;61.56;93199.47;2068408;69;20152;-72
2022/08/02 00:14:36;;;;;;;3.75;1.38;;;;;;;20.45;65.61;93201.19;2071198;69;20184;-72
2022/08/02 00:17:03;;;;;;;3.80;1.55;;;;;;;20.58;65.25;93193.78;2071222;69;20163;-72
2022/08/02 00:19:28;;;;;;;4.82;1.55;;;;;;;20.61;64.19;93190.28;2070760;69;20132;-72
2022/08/02 00:21:54;;;;;;;2.20;1.35;;;;;;;21.06;61.16;93189.50;2070415;69;20163;-72
2022/08/02 00:24:19;;;;;;;4.22;1.42;;;;;;;20.70;62.68;93185.56;2067093;69;20148;-72
2022/08/02 00:26:45;;;;;;;3.60;1.67;;;;;;;20.65;63.50;93181.09;2070189;69;20155;-72
2022/08/02 00:29:11;;;;;;;3.92;1.42;;;;;;;20.64;64.17;93176.78;2071077;69;20145;-72
2022/08/02 00:31:36;;;;;;;4.53;1.55;;;;;;;20.73;63.67;93167.06;2071046;69;20228;-72
2022/08/02 00:34:02;;;;;;;6.32;1.50;;;;;;;20.73;62.30;93172.78;2070935;69;20498;-73
2022/08/02 00:36:28;;;;;;;3.53;1.50;;;;;;;20.63;63.35;93175.34;2071307;69;20144;-72
2022/08/02 00:38:54;;;;;;;8.63;2.10;;;;;;;20.63;63.39;93172.47;2068087;69;20598;-72
2022/08/02 00:41:21;;;;;;;4.15;1.35;;;;;;;21.14;60.48;93169.00;2070975;69;20498;-72
2022/08/02 00:43:48;;;;;;;3.33;1.50;;;;;;;20.42;63.78;93171.81;2070852;69;20164;-72
2022/08/02 00:46:15;;;;;;;2.60;1.50;;;;;;;20.55;62.88;93164.38;2071074;69;20246;-72
2022/08/02 00:48:40;;;;;;;3.85;1.45;;;;;;;20.64;63.18;93171.06;2071209;69;20227;-72
2022/08/02 00:51:06;;;;;;;3.33;1.40;;;;;;;20.43;64.31;93173.25;2067918;69;20617;-72
2022/08/02 00:53:32;;;;;;;2.67;1.50;;;;;;;20.39;64.27;93160.97;2071154;69;20147;-72
2022/08/02 00:55:59;;;;;;;4.60;1.55;;;;;;;20.40;64.79;93168.16;2071421;69;20168;-73
2022/08/02 00:58:25;;;;;;;2.35;1.50;;;;;;;20.25;65.34;93164.09;2071252;69;20163;-72
2022/08/02 01:00:50;;;;;;;6.85;1.92;;;;;;;20.24;65.40;93165.50;2067674;69;20178;-72
2022/08/02 01:03:17;;;;;;;2.85;1.55;;;;;;;20.25;65.81;93155.50;2071170;69;20140;-73
2022/08/02 01:05:43;;;;;;;5.03;1.70;;;;;;;20.39;64.03;93150.28;2071391;69;20251;-72
2022/08/02 01:08:09;;;;;;;3.95;1.80;;;;;;;20.03;67.14;93150.56;2067761;69;20148;-72
2022/08/02 01:10:35;;;;;;;2.47;1.75;;;;;;;19.98;67.41;93154.69;2071284;69;20153;-72
2022/08/02 01:13:01;;;;;;;2.17;1.40;;;;;;;20.00;67.53;93149.03;2071356;69;20235;-71
2022/08/02 01:15:32;;;;;;;2.60;1.45;;;;;;;20.11;66.88;93158.66;2068167;69;20209;-73
2022/08/02 01:18:20;;;;;;;3.53;1.60;;;;;;;20.04;67.94;93165.56;2071371;69;20137;-74
2022/08/02 01:21:05;;;;;;;2.70;1.70;;;;;;;19.83;68.11;93172.00;2071274;69;20136;-74
2022/08/02 01:23:47;;;;;;;2.60;1.80;;;;;;;20.05;66.85;93164.16;2071770;69;20136;-73
2022/08/02 01:26:31;;;;;;;2.20;1.60;;;;;;;20.04;67.35;93169.16;2071282;69;20155;-73
2022/08/02 01:29:06;;;;;;;2.20;1.60;;;;;;;19.99;68.14;93169.69;2071288;69;20565;-73
2022/08/02 01:31:37;;;;;;;2.33;1.50;;;;;;;20.13;66.62;93160.84;2067678;69;20160;-70
2022/08/02 01:34:10;;;;;;;4.30;1.90;;;;;;;19.99;67.43;93166.84;2070823;69;20190;-72
2022/08/02 01:36:37;;;;;;;;;;;;;;;19.97;67.77;93161.78;2070875;69;20159;-73
2022/08/02 01:39:06;;;;;;;3.33;1.55;;;;;;;19.78;68.33;93156.84;2067263;69;20195;-72
2022/08/02 01:41:33;;;;;;;2.33;1.42;;;;;;;19.54;69.79;93153.88;2071218;69;20640;-72
2022/08/02 01:44:00;;;;;;;3.22;1.50;;;;;;;19.90;67.51;93157.25;2070791;69;20184;-72
2022/08/02 01:46:29;;;;;;;5.28;1.75;;;;;;;19.85;68.25;93155.66;2071008;69;20145;-71
2022/08/02 01:48:56;;;;;;;2.88;1.50;;;;;;;20.04;67.56;93149.16;2070945;69;20235;-72
2022/08/02 01:54:15;;;;;;;3.30;1.73;;;;;;;19.92;67.82;93148.75;2070737;69;20596;-72
2022/08/02 01:56:43;;;;;;;3.40;1.50;;;;;;;19.83;68.79;93146.28;2070798;69;20155;-72
2022/08/02 01:59:12;;;;;;;2.83;1.60;;;;;;;19.69;69.06;93144.41;2071240;69;20241;-73
2022/08/02 02:01:40;;;;;;;6.43;1.58;;;;;;;19.69;69.46;93147.25;2071425;69;20171;-72
2022/08/02 02:04:10;;;;;;;2.65;1.48;;;;;;;19.88;67.72;93140.03;2071348;69;20148;-73
2022/08/02 02:06:37;;;;;;;1.65;1.35;;;;;;;19.99;65.81;93139.00;2071218;69;20146;-73
2022/08/02 02:09:04;;;;;;;3.53;1.40;;;;;;;19.71;68.85;93144.50;2071474;69;20575;-72
2022/08/02 02:11:31;;;;;;;2.65;1.10;;;;;;;19.70;68.34;93140.19;2071293;69;20549;-73
2022/08/02 02:13:59;;;;;;;1.73;1.27;;;;;;;19.79;66.89;93147.63;2071329;69;20134;-74
2022/08/02 02:16:26;;;;;;;2.95;1.40;;;;;;;19.63;67.48;93132.78;2071367;69;20136;-74
2022/08/02 02:18:53;;;;;;;4.20;1.35;;;;;;;19.78;66.74;93134.00;2067842;69;20273;-73
2022/08/02 02:21:19;;;;;;;1.50;1.17;;;;;;;19.66;67.84;93133.59;2071343;69;20156;-74
2022/08/02 02:23:45;;;;;;;1.85;1.17;;;;;;;19.72;66.68;93125.22;2071257;69;20147;-74
2022/08/02 02:26:13;;;;;;;2.10;1.25;;;;;;;19.72;66.98;93125.97;2071331;69;20224;-74
2022/08/02 02:28:40;;;;;;;1.60;1.15;;;;;;;19.58;68.12;93131.16;2071235;69;20243;-71
2022/08/02 02:31:09;;;;;;;4.20;1.30;;;;;;;19.41;68.81;93129.13;2067869;69;20234;-71
2022/08/02 02:33:40;;;;;;;2.67;1.23;;;;;;;19.35;69.38;93132.50;2071185;69;20141;-71
2022/08/02 02:36:08;;;;;;;1.25;1.10;;;;;;;19.34;68.06;93128.19;2067916;69;20521;-71
2022/08/02 02:38:35;;;;;;;1.70;1.10;;;;;;;19.20;69.32;93122.72;2071216;69;20186;-71
2022/08/02 02:41:04;;;;;;;1.67;1.10;;;;;;;19.10;69.54;93115.91;2071405;69;20240;-71
2022/08/02 02:43:32;;;;;;;2.60;1.30;;;;;;;19.17;68.98;93109.75;2071197;69;20175;-71
2022/08/02 02:45:59;;;;;;;2.50;1.45;;;;;;;19.28;68.33;93117.28;2071477;69;20152;-73
2022/08/02 02:48:27;;;;;;;1.52;1.00;;;;;;;19.24;68.44;93120.00;2071174;69;20141;-73
2022/08/02 02:50:53;;;;;;;1.60;1.10;;;;;;;19.15;69.26;93114.66;2071270;69;20136;-73
2022/08/02 02:53:20;;;;;;;2.15;1.00;;;;;;;19.03;69.19;93117.81;2071401;69;20534;-73
2022/08/02 02:55:46;;;;;;;4.45;1.20;;;;;;;19.01;69.55;93112.78;2071443;69;20463;-73
2022/08/02 02:58:12;;;;;;;2.00;1.13;;;;;;;19.14;68.36;93116.06;2071208;69;20140;-73
2022/08/02 03:03:24;;;;;;;2.28;1.20;;;;;;;19.22;67.25;93116.34;2071131;69;20337;-73
2022/08/02 03:05:50;;;;;;;4.22;1.20;;;;;;;19.37;66.62;93126.13;2071311;69;20144;-73
2022/08/02 03:08:16;;;;;;;1.27;1.08;;;;;;;19.25;66.37;93121.47;2071143;69;20189;-73
2022/08/02 03:10:42;;;;;;;2.65;1.10;;;;;;;19.01;69.00;93123.44;2071182;69;20140;-72
2022/08/02 03:13:09;;;;;;;2.22;1.30;;;;;;;19.16;68.02;93128.28;2071198;69;20252;-73
2022/08/02 03:15:36;;;;;;;1.63;1.00;;;;;;;18.99;69.14;93132.66;2071159;69;20156;-73
2022/08/02 03:18:02;;;;;;;1.08;0.90;;;;;;;18.91;69.62;93134.50;2071063;69;20633;-73
2022/08/02 03:20:27;;;;;;;2.55;1.00;;;;;;;19.04;68.92;93144.97;2067735;69;20172;-73
2022/08/02 03:22:53;;;;;;;3.38;1.30;;;;;;;18.99;69.52;93137.66;2071209;69;20656;-72
2022/08/02 03:25:19;;;;;;;2.78;1.60;;;;;;;18.92;70.02;93150.97;2065087;69;20256;-72
2022/08/02 03:27:45;;;;;;;1.95;1.45;;;;;;;18.93;70.04;93152.41;2071160;69;20235;-72
2022/08/02 03:30:12;;;;;;;2.85;1.27;;;;;;;18.99;69.39;93158.34;2067733;69;20256;-72
2022/08/02 03:32:40;;;;;;;2.85;1.40;;;;;;;18.89;70.80;93143.72;2067655;69;20540;-72
2022/08/02 03:35:08;;;;;;;1.88;1.13;;;;;;;18.89;70.57;93148.69;2071152;69;20231;-73
2022/08/02 03:37:35;;;;;;;1.40;1.20;;;;;;;18.96;70.11;93151.09;2067648;69;20690;-73
2022/08/02 03:40:02;;;;;;;3.50;1.25;;;;;;;19.02;69.90;93145.63;2070983;69;20144;-73
2022/08/02 03:42:28;;;;;;;4.47;1.23;;;;;;;18.93;70.86;93148.84;2071746;69;20156;-73
2022/08/02 03:44:55;;;;;;;1.55;1.00;;;;;;;18.95;70.83;93143.19;2071601;69;20229;-73
2022/08/02 03:47:22;;;;;;;1.67;1.23;;;;;;;18.90;70.99;93144.44;2071540;69;20148;-73
2022/08/02 03:49:48;;;;;;;2.53;1.50;;;;;;;18.93;70.76;93143.88;2068085;69;20514;-73
2022/08/02 03:52:14;;;;;;;1.60;1.02;;;;;;;19.19;67.88;93140.47;2068287;69;20241;-73
2022/08/02 03:54:40;;;;;;;2.88;1.30;;;;;;;19.01;69.85;93138.47;2071556;69;20676;-73
2022/08/02 03:57:07;;;;;;;2.13;1.45;;;;;;;19.06;69.06;93136.50;2071591;69;20620;-73
2022/08/02 03:59:45;;;;;;;2.70;1.40;;;;;;;19.01;68.78;93134.84;2071552;69;20148;-73
2022/08/02 04:02:12;;;;;;;4.85;1.75;;;;;;;18.49;72.91;93137.91;2071522;69;20144;-73
2022/08/02 04:04:39;;;;;;;2.13;1.40;;;;;;;18.69;71.60;93137.22;2071428;69;20498;-73
2022/08/02 04:07:04;;;;;;;3.80;1.65;;;;;;;18.93;70.09;93134.56;2071460;69;20247;-73
2022/08/02 04:09:30;;;;;;;2.92;1.73;;;;;;;18.96;69.88;93138.94;2068124;69;20231;-73
2022/08/02 04:11:56;;;;;;;4.10;1.63;;;;;;;18.93;70.52;93129.59;2071496;69;20236;-74
2022/08/02 04:14:22;;;;;;;3.28;1.83;;;;;;;18.89;70.02;93137.28;2071521;69;20203;-71
2022/08/02 04:16:54;;;;;;;4.22;2.05;;;;;;;18.21;73.74;93137.53;2071480;69;20155;-72
2022/08/02 04:19:41;;;;;;;3.65;1.38;;;;;;;18.44;72.28;93141.25;2068027;69;20579;-72
2022/08/02 04:22:15;;;;;;;3.22;1.52;;;;;;;18.81;70.22;93145.53;2071558;69;20148;-72
2022/08/02 04:24:46;;;;;;;2.05;1.35;;;;;;;18.77;70.79;93135.41;2071655;69;20152;-72
2022/08/02 04:27:12;;;;;;;3.00;1.70;;;;;;;18.93;67.82;93132.44;2071526;69;20140;-72
2022/08/02 04:29:39;;;;;;;2.63;1.80;;;;;;;18.74;70.69;93130.31;2071599;69;20182;-72
2022/08/02 04:32:06;;;;;;;3.17;1.88;;;;;;;18.91;69.37;93134.50;2071464;69;20144;-72
2022/08/02 04:34:32;;;;;;;3.33;1.58;;;;;;;18.88;67.93;93132.97;2071449;69;20160;-72
2022/08/02 04:36:59;;;;;;;2.65;1.50;;;;;;;18.86;69.44;93135.72;2072197;69;20148;-72
2022/08/02 04:39:25;;;;;;;10.35;4.00;;;;;;;18.48;71.89;93141.41;2071525;69;20243;-71
2022/08/02 04:41:51;;;;;;;7.63;3.08;;;;;;;18.76;70.09;93131.13;2071552;69;20497;-71
2022/08/02 04:44:17;;;;;;;5.35;2.42;;;;;;;18.81;68.94;93131.25;2071701;69;20152;-72
2022/08/02 04:46:44;;;;;;;3.70;1.80;;;;;;;18.66;71.26;93130.72;2072931;69;20182;-72
2022/08/02 04:49:11;;;;;;;23.17;8.48;;;;;;;18.79;69.69;93138.38;2070420;69;20164;-71
2022/08/02 04:51:41;;;;;;;16.48;4.75;;;;;;;18.89;69.50;93135.16;2071490;69;20147;-73
2022/08/02 04:54:08;;;;;;;6.97;2.80;;;;;;;18.94;70.99;93138.88;2071560;69;20140;-72
2022/08/02 04:56:33;;;;;;;5.38;1.80;;;;;;;18.87;71.62;93143.63;2071439;69;20214;-72
2022/08/02 04:58:59;;;;;;;3.00;1.63;;;;;;;18.85;70.23;93139.97;2071647;69;20152;-72
2022/08/02 05:01:25;;;;;;;3.28;1.80;;;;;;;18.84;71.43;93144.22;2072388;69;20218;-72
2022/08/02 05:03:50;;;;;;;2.92;1.88;;;;;;;18.82;70.54;93136.31;2072529;69;20190;-73
2022/08/02 05:06:18;;;;;;;3.88;1.50;;;;;;;18.93;70.84;93143.13;2074560;69;20176;-73
2022/08/02 05:08:45;;;;;;;3.15;2.10;;;;;;;18.45;72.69;93137.00;2074200;69;20228;-73
2022/08/02 05:11:10;;;;;;;7.95;3.08;;;;;;;18.68;71.99;93142.19;2071854;69;20152;-72
2022/08/02 05:13:36;;;;;;;22.88;6.53;;;;;;;18.98;70.63;93145.47;2074678;69;20237;-73
2022/08/02 05:16:03;;;;;;;4.82;2.05;;;;;;;19.11;70.55;93148.78;2074938;69;20140;-73
2022/08/02 05:18:30;;;;;;;8.45;2.30;;;;;;;19.06;71.78;93150.75;2074621;69;20143;-72
2022/08/02 05:20:56;;;;;;;5.57;2.30;;;;;;;19.16;71.25;93144.69;2074784;69;20160;-71
2022/08/02 05:23:21;;;;;;;4.82;2.28;;;;;;;19.15;69.76;93143.19;2074749;69;20274;-72
2022/08/02 05:25:47;;;;;;;4.38;1.98;;;;;;;19.11;68.88;93134.50;2074857;69;20564;-72
2022/08/02 05:28:13;;;;;;;5.65;1.80;;;;;;;19.26;67.81;93145.03;2074882;69;20680;-73
2022/08/02 05:30:39;;;;;;;5.38;1.98;;;;;;;19.34;66.57;93141.75;2074627;69;20235;-73
2022/08/02 05:33:05;;;;;;;2.45;1.70;;;;;;;19.26;68.97;93137.19;2074610;69;20144;-73
2022/08/02 05:35:31;;;;;;;3.75;1.70;;;;;;;19.29;68.72;93135.88;2071356;69;20136;-73
2022/08/02 05:37:56;;;;;;;3.00;1.65;;;;;;;19.26;70.75;93136.47;2074681;69;20140;-73
2022/08/02 05:40:22;;;;;;;5.18;2.15;;;;;;;19.27;70.60;93135.06;2074661;69;20146;-73
2022/08/02 05:42:47;;;;;;;3.40;1.77;;;;;;;19.24;71.03;93136.38;2074738;69;20147;-71
2022/08/02 05:45:13;;;;;;;4.13;1.70;;;;;;;19.26;69.30;93142.91;2074580;69;20210;-72
2022/08/02 05:47:39;;;;;;;4.63;1.70;;;;;;;19.37;68.59;93141.13;2074628;69;20223;-71
2022/08/02 05:50:06;;;;;;;2.17;1.40;;;;;;;19.07;72.04;93151.47;2074681;69;20144;-71
2022/08/02 05:53:01;;;;;;;2.58;1.45;;;;;;;19.10;71.39;93138.72;2074596;69;20542;-72
2022/08/02 05:55:41;;;;;;;2.60;1.45;;;;;;;19.04;72.21;93144.97;2074672;69;20238;-71
2022/08/02 05:58:18;;;;;;;3.30;1.40;;;;;;;19.21;69.65;93135.59;2074717;69;20148;-71
2022/08/02 06:00:46;;;;;;;1.83;1.40;;;;;;;19.22;70.75;93151.31;2074623;69;20167;-72
2022/08/02 06:03:31;;;;;;;3.05;1.52;;;;;;;19.37;69.51;93146.84;2071195;69;20209;-72
2022/08/02 06:06:05;;;;;;;3.10;1.70;;;;;;;19.29;71.05;93147.31;2074573;69;20567;-73
2022/08/02 06:08:36;;;;;;;6.18;1.60;;;;;;;19.22;71.41;93153.44;2074663;69;20163;-72
2022/08/02 06:11:05;;;;;;;5.68;1.73;;;;;;;19.30;71.11;93153.75;2071345;69;20148;-72
2022/08/02 06:13:31;;;;;;;5.10;1.80;;;;;;;19.18;71.57;93156.16;2074707;69;20151;-73
2022/08/02 06:15:58;;;;;;;3.63;1.50;;;;;;;19.21;71.38;93137.72;2072906;69;20204;-73
2022/08/02 06:18:28;;;;;;;4.40;1.70;;;;;;;19.16;71.95;93144.69;2067894;69;20172;-73
2022/08/02 06:20:57;;;;;;;2.80;1.75;;;;;;;19.08;72.40;93147.22;2067995;69;20141;-71
2022/08/02 06:23:24;;;;;;;5.53;1.80;;;;;;;19.01;72.18;93140.56;2064572;69;20201;-71
2022/08/02 06:25:51;;;;;;;5.70;2.58;;;;;;;19.22;71.54;93142.03;2064635;69;20156;-71
2022/08/02 06:28:18;;;;;;;7.38;2.40;;;;;;;19.11;71.92;93140.22;2065266;69;20639;-73
2022/08/02 06:30:44;;;;;;;3.35;1.60;;;;;;;19.17;72.16;93141.16;2068353;69;20603;-72
2022/08/02 06:33:09;;;;;;;3.70;1.60;;;;;;;19.19;71.64;93137.63;2067843;69;20152;-72
2022/08/02 06:36:14;;;;;;;2.90;1.60;;;;;;;19.26;71.81;93142.91;2071495;69;20184;-72
2022/08/02 06:38:50;;;;;;;4.78;2.08;;;;;;;19.52;69.93;93140.25;2068704;69;20133;-72
2022/08/02 06:41:17;;;;;;;1.70;1.30;;;;;;;19.58;70.64;93145.44;2071456;69;20133;-71
2022/08/02 06:43:58;;;;;;;2.70;1.48;;;;;;;19.67;70.34;93141.50;2071370;69;20182;-71
2022/08/02 06:46:23;;;;;;;4.60;1.90;;;;;;;19.92;67.94;93137.31;2074766;69;20166;-71
2022/08/02 06:48:49;;;;;;;2.83;1.67;;;;;;;19.97;69.05;93138.19;2074493;69;20565;-71
2022/08/02 06:51:15;;;;;;;28.30;11.82;;;;;;;20.07;70.34;93138.53;2074482;69;20571;-71
2022/08/02 06:53:40;;;;;;;3.30;2.05;;;;;;;20.04;69.72;93123.44;2071164;69;20149;-72
2022/08/02 06:56:06;;;;;;;4.82;2.03;;;;;;;20.22;69.58;93128.28;2074552;69;20144;-71
2022/08/02 06:58:32;;;;;;;5.68;2.45;;;;;;;20.30;69.67;93128.53;2074356;69;20158;-71
2022/08/02 07:00:58;;;;;;;6.57;2.22;;;;;;;20.36;69.40;93125.88;2074592;69;20244;-72
2022/08/02 07:03:27;;;;;;;3.03;1.55;;;;;;;20.44;67.06;93119.69;2074566;69;20507;-72
2022/08/02 07:05:53;;;;;;;7.75;2.92;;;;;;;20.57;65.79;93121.50;2074465;69;20144;-72
2022/08/02 07:08:19;;;;;;;3.42;1.63;;;;;;;20.66;67.64;93111.06;2071118;69;20622;-72
2022/08/02 07:10:45;;;;;;;10.35;4.85;;;;;;;20.76;66.82;93111.38;2074503;69;20183;-71
2022/08/02 07:13:11;;;;;;;6.38;2.40;;;;;;;20.73;67.67;93109.84;2071073;69;20256;-72
2022/08/02 07:15:37;;;;;;;15.43;5.82;;;;;;;20.75;68.64;93107.03;2074465;69;20160;-72
2022/08/02 07:18:05;;;;;;;2.53;1.60;;;;;;;20.92;66.69;93111.09;2074555;69;20244;-72
2022/08/02 07:20:31;;;;;;;2.67;1.55;;;;;;;21.01;66.73;93104.94;2074557;69;20189;-72
2022/08/02 07:22:56;;;;;;;5.75;2.60;;;;;;;21.11;65.35;93104.50;2074556;69;20230;-72
2022/08/02 07:25:22;;;;;;;7.57;3.30;;;;;;;21.21;65.83;93110.53;2074627;69;20206;-72
2022/08/02 07:27:47;;;;;;;9.73;3.38;;;;;;;21.29;66.38;93101.41;2074606;69;20179;-72
2022/08/02 07:30:13;;;;;;;11.60;4.55;;;;;;;21.29;66.84;93099.28;2074459;69;20551;-72
2022/08/02 07:32:39;;;;;;;2.03;1.77;;;;;;;21.11;65.22;93098.75;2074611;69;20179;-73
2022/08/02 07:35:06;;;;;;;4.53;1.92;;;;;;;21.31;65.46;93099.38;2074702;69;20201;-72
2022/08/02 07:37:34;;;;;;;4.38;1.95;;;;;;;21.56;65.59;93094.28;2074509;69;20205;-73
2022/08/02 07:39:59;;;;;;;2.60;1.70;;;;;;;21.72;62.73;93102.59;2074539;69;20143;-73
2022/08/02 07:42:25;;;;;;;2.90;1.73;;;;;;;21.66;62.46;93096.69;2074524;69;20151;-73
2022/08/02 07:44:51;;;;;;;5.25;2.70;;;;;;;22.41;65.26;93101.41;2074531;69;20180;-73
2022/08/02 07:47:17;;;;;;;3.15;1.88;;;;;;;22.23;59.17;93095.97;2074675;69;20183;-73
2022/08/02 07:49:43;;;;;;;5.47;2.17;;;;;;;22.86;61.90;93098.78;2070943;69;20606;-73
2022/08/02 07:52:09;;;;;;;3.55;1.70;;;;;;;23.33;60.30;93103.41;2074374;69;20221;-73
2022/08/02 07:54:35;;;;;;;2.75;1.90;;;;;;;23.83;58.00;93097.91;2068351;69;20175;-74
2022/08/02 07:57:00;;;;;;;2.95;1.90;;;;;;;23.94;59.82;93083.69;2071015;69;20552;-74
2022/08/02 07:59:26;;;;;;;2.83;1.80;;;;;;;23.67;55.84;93085.38;2067716;69;20259;-73
2022/08/02 08:01:52;;;;;;;4.57;1.67;;;;;;;24.21;56.87;93084.84;2071032;69;20263;-74
2022/08/02 08:04:18;;;;;;;2.00;1.40;;;;;;;24.34;54.79;93086.50;2070934;69;20253;-74
2022/08/02 08:06:44;;;;;;;3.17;1.45;;;;;;;24.75;58.89;93081.38;2070921;69;20164;-74
2022/08/02 08:09:10;;;;;;;2.70;1.60;;;;;;;24.73;53.45;93079.19;2070679;69;20797;-74
2022/08/02 08:11:36;;;;;;;3.05;1.40;;;;;;;25.29;55.60;93081.38;2070177;69;20168;-75
2022/08/02 08:14:04;;;;;;;3.35;1.75;;;;;;;25.59;55.40;93083.88;2070045;69;20197;-75
2022/08/02 08:16:29;;;;;;;2.10;1.67;;;;;;;26.59;51.31;93086.97;2067541;69;20156;-75
2022/08/02 08:18:55;;;;;;;2.05;1.70;;;;;;;25.42;48.55;93090.16;2070985;69;20470;-74
2022/08/02 08:21:21;;;;;;;3.63;1.40;;;;;;;26.21;51.59;93088.09;2070889;69;20233;-74
2022/08/02 08:23:47;;;;;;;1.45;1.27;;;;;;;26.33;50.66;93082.41;2071113;69;20559;-75
2022/08/02 08:26:12;;;;;;;2.17;1.30;;;;;;;26.75;51.07;93086.34;2071072;69;20132;-75
2022/08/02 08:28:38;;;;;;;2.95;1.80;;;;;;;26.23;48.02;93078.72;2070983;69;20154;-74
2022/08/02 08:31:04;;;;;;;1.58;1.40;;;;;;;26.61;47.56;93079.03;2070565;69;20164;-75
2022/08/02 08:33:29;;;;;;;1.58;1.40;;;;;;;27.04;48.14;93084.34;2070476;69;20144;-72
2022/08/02 08:35:56;;;;;;;1.95;1.20;;;;;;;27.38;46.25;93080.19;2070666;69;20606;-74
2022/08/02 08:38:22;;;;;;;2.28;1.33;;;;;;;26.84;45.25;93082.06;2070583;69;20163;-73
2022/08/02 08:40:49;;;;;;;1.40;1.30;;;;;;;27.18;45.89;93078.66;2070721;69;20152;-74
2022/08/02 08:43:15;;;;;;;2.33;1.30;;;;;;;27.60;46.03;93081.00;2070581;69;20176;-74
2022/08/02 08:45:48;;;;;;;1.98;1.00;;;;;;;28.20;45.69;93075.34;2071910;69;20207;-73
2022/08/02 08:48:14;;;;;;;;;;;;;;;28.17;41.82;93071.00;2071669;69;20643;-74
2022/08/02 08:51:02;;;;;;;1.40;1.08;;;;;;;28.57;41.93;93076.09;2071647;69;20128;-75
2022/08/02 08:53:30;;;;;;;1.27;1.00;;;;;;;28.80;39.75;93073.88;2068103;69;20137;-74
2022/08/02 08:55:57;;;;;;;1.83;1.13;;;;;;;27.19;40.73;93074.34;2071434;69;20231;-74
2022/08/02 08:58:23;;;;;;;2.03;1.20;;;;;;;27.96;39.81;93067.38;2068046;69;20238;-74
2022/08/02 09:00:49;;;;;;;2.25;1.10;;;;;;;28.67;39.50;93070.28;2071412;69;20270;-75
2022/08/02 09:03:15;;;;;;;1.20;1.10;;;;;;;28.92;41.53;93070.97;2071339;69;20341;-74
2022/08/02 09:05:42;;;;;;;2.25;1.23;;;;;;;29.38;40.65;93066.50;2068029;69;20152;-74
2022/08/02 09:08:08;;;;;;;1.00;0.90;;;;;;;29.06;37.04;93052.84;2071513;69;20232;-74
2022/08/02 09:10:34;;;;;;;1.35;1.20;;;;;;;29.95;38.12;93056.78;2067475;69;20175;-74
2022/08/02 09:13:22;;;;;;;2.45;1.10;;;;;;;30.02;38.33;93056.03;2071396;69;20147;-75
2022/08/02 09:15:59;;;;;;;1.10;1.00;;;;;;;30.22;38.74;93054.47;2071503;69;20183;-74
2022/08/02 09:18:37;;;;;;;1.95;1.10;;;;;;;29.99;38.59;93045.16;2071296;69;20703;-74
2022/08/02 09:21:07;;;;;;;1.02;1.00;;;;;;;30.38;39.51;93045.63;2071510;69;20175;-74
2022/08/02 09:23:36;;;;;;;1.92;1.13;;;;;;;29.54;37.59;93037.41;2071174;69;20184;-74
2022/08/02 09:26:08;;;;;;;2.30;1.05;;;;;;;29.63;37.80;93041.75;2071145;69;20162;-74
2022/08/02 09:28:37;;;;;;;1.83;1.10;;;;;;;30.84;36.44;93047.41;2071409;69;20209;-74
2022/08/02 09:31:13;;;;;;;4.30;1.00;;;;;;;29.21;37.12;93048.44;2071431;69;20136;-74
2022/08/02 09:33:40;;;;;;;1.40;1.02;;;;;;;29.48;38.25;93046.16;2071333;69;20548;-73
2022/08/02 09:36:11;;;;;;;2.80;1.10;;;;;;;28.72;41.05;93039.13;2071346;69;20151;-74
2022/08/02 09:38:38;;;;;;;1.58;1.00;;;;;;;30.16;39.38;93046.53;2071300;69;20203;-74
2022/08/02 09:41:05;;;;;;;1.63;1.20;;;;;;;31.10;37.67;93031.13;2068043;69;20156;-74
2022/08/02 09:43:35;;;;;;;2.22;1.17;;;;;;;30.43;38.39;93031.81;2071301;69;20148;-74
2022/08/02 09:46:14;;;;;;;3.40;1.15;;;;;;;29.61;38.65;93035.25;2071284;69;20547;-73
2022/08/02 09:49:00;;;;;;;0.95;0.90;;;;;;;29.81;39.25;93028.59;2071217;69;20564;-74
2022/08/02 09:51:29;;;;;;;1.20;1.10;;;;;;;30.43;38.83;93023.81;2071519;69;20249;-74
2022/08/02 09:53:57;;;;;;;2.42;1.10;;;;;;;30.58;37.32;93024.38;2071270;69;20183;-74
2022/08/02 09:56:26;;;;;;;1.67;1.10;;;;;;;29.84;37.71;93018.41;2071342;69;20179;-74
2022/08/02 09:58:55;;;;;;;1.90;1.40;;;;;;;29.77;37.86;93022.81;2071274;69;20567;-74
2022/08/02 10:01:31;;;;;;;2.63;1.10;;;;;;;30.97;38.58;93015.28;2065231;69;20272;-75
2022/08/02 10:04:01;;;;;;;1.60;1.00;;;;;;;31.44;36.19;93021.31;2071251;69;20183;-76
2022/08/02 10:06:27;;;;;;;2.33;1.20;;;;;;;31.00;35.56;93010.91;2071559;69;20156;-75
2022/08/02 10:08:53;;;;;;;2.92;1.20;;;;;;;30.88;35.00;93012.50;2071382;69;20155;-75
2022/08/02 10:11:24;;;;;;;1.27;1.00;;;;;;;30.84;35.97;93011.81;2071301;69;20559;-75
2022/08/02 10:13:50;;;;;;;1.40;1.02;;;;;;;31.22;36.72;93004.84;2071200;69;20209;-75
2022/08/02 10:16:20;;;;;;;0.85;0.85;;;;;;;30.60;37.41;93001.13;2071274;69;20258;-75
2022/08/02 10:18:46;;;;;;;2.75;1.00;;;;;;;31.53;34.66;92998.66;2071250;69;20151;-75
2022/08/02 10:21:15;;;;;;;1.00;0.90;;;;;;;32.06;34.15;92995.72;2071610;69;20148;-75
2022/08/02 10:23:43;;;;;;;1.88;1.00;;;;;;;31.48;34.68;93003.09;2071193;69;20140;-75
2022/08/02 10:26:11;;;;;;;2.67;1.20;;;;;;;33.16;33.42;93001.84;2071262;69;20152;-75
2022/08/02 10:28:37;;;;;;;1.73;1.00;;;;;;;33.74;31.53;93002.13;2071107;69;20144;-75
2022/08/02 10:31:06;;;;;;;3.40;1.35;;;;;;;32.89;30.48;93001.63;2071300;69;20171;-75
2022/08/02 10:33:36;;;;;;;1.15;1.00;;;;;;;32.79;32.93;92998.88;2067728;69;20147;-75
2022/08/02 10:36:04;;;;;;;1.35;1.08;;;;;;;33.59;31.62;92995.19;2071374;69;20144;-76
2022/08/02 10:38:30;;;;;;;1.23;0.93;;;;;;;34.72;30.29;92991.06;2070452;69;20164;-76
2022/08/02 10:40:56;;;;;;;3.28;0.90;;;;;;;34.44;30.43;92997.63;2067809;69;20144;-75
2022/08/02 10:43:31;;;;;;;1.73;1.00;;;;;;;35.40;29.16;92993.63;2070840;69;20209;-76
2022/08/02 10:46:22;;;;;;;2.75;0.95;;;;;;;34.03;29.61;92989.84;2071125;69;20617;-76
2022/08/02 10:49:17;;;;;;;3.15;1.20;;;;;;;34.68;29.90;92984.63;2070363;69;20239;-76
2022/08/02 10:51:54;;;;;;;1.83;1.00;;;;;;;36.86;28.73;92995.75;2070516;69;20137;-76
2022/08/02 10:54:21;;;;;;;0.95;0.93;;;;;;;37.30;27.68;92993.50;2070806;69;20145;-75
2022/08/02 10:56:49;;;;;;;3.05;1.10;;;;;;;37.38;26.68;92986.63;2070783;69;20163;-76
2022/08/02 10:59:26;;;;;;;2.90;1.25;;;;;;;37.53;27.01;92995.63;2070591;69;20256;-75
2022/08/02 11:02:00;;;;;;;2.80;1.30;;;;;;;39.18;26.05;92994.25;2070843;69;20156;-76
2022/08/02 11:04:32;;;;;;;2.28;1.02;;;;;;;39.87;24.65;92994.84;2070603;69;20152;-76
2022/08/02 11:07:13;;;;;;;0.70;0.70;;;;;;;42.04;22.13;92996.59;2071045;69;20140;-76
2022/08/02 11:09:41;;;;;;;3.33;0.90;;;;;;;44.24;19.14;92997.81;2070816;69;20210;-76
2022/08/02 11:12:13;;;;;;;1.65;0.80;;;;;;;45.86;18.38;92990.84;2070859;69;20231;-76
2022/08/02 11:14:57;;;;;;;2.60;1.08;;;;;;;43.99;17.99;92986.06;2066906;69;20228;-76
2022/08/02 11:17:23;;;;;;;2.10;0.90;;;;;;;46.40;16.98;92990.78;2070925;69;20587;-76
2022/08/02 11:20:07;;;;;;;2.67;1.00;;;;;;;45.42;17.46;92988.69;2070477;69;20571;-76
2022/08/02 11:22:35;;;;;;;3.92;1.33;;;;;;;47.48;15.70;92989.47;2067354;69;20471;-76
2022/08/02 11:25:22;;;;;;;1.63;0.70;;;;;;;49.39;14.68;92974.97;2071076;69;20152;-76
2022/08/02 11:27:53;;;;;;;1.05;0.60;;;;;;;49.22;15.05;92985.34;2070901;69;20156;-73
2022/08/02 11:30:20;;;;;;;1.67;0.70;;;;;;;51.09;12.56;92977.28;2070726;69;20144;-76
2022/08/02 11:32:47;;;;;;;5.85;1.27;;;;;;;50.65;12.95;92975.34;2064553;69;20160;-76
2022/08/02 11:35:12;;;;;;;4.03;0.95;;;;;;;48.73;15.33;92967.72;2067699;69;20196;-76
2022/08/02 11:37:43;;;;;;;3.67;0.80;;;;;;;49.32;13.41;92963.56;2067288;69;20275;-77
2022/08/02 11:40:11;;;;;;;1.92;0.80;;;;;;;51.18;13.69;92970.50;2070654;69;20255;-76
2022/08/02 11:42:38;;;;;;;3.97;1.05;;;;;;;53.04;12.66;92975.31;2070588;69;20283;-77
2022/08/02 11:45:06;;;;;;;1.60;0.60;;;;;;;51.80;14.15;92966.28;2070415;69;20684;-77
2022/08/02 11:47:32;;;;;;;1.23;0.60;;;;;;;53.74;12.27;92968.34;2070818;69;20278;-74